createdAt,value
2018-11-26T00:00:31.159Z,3.80
2018-11-26T00:04:40.291Z,3.70
2018-11-26T00:08:47.609Z,3.70
2018-11-26T00:12:54.459Z,3.90
2018-11-26T00:17:18.692Z,3.70
2018-11-26T00:21:26.733Z,3.80
2018-11-26T00:25:34.057Z,3.80
2018-11-26T00:29:40.741Z,3.70
2018-11-26T00:33:47.241Z,3.50
2018-11-26T00:37:55.380Z,3.40
2018-11-26T00:42:01.858Z,3.50
2018-11-26T00:46:08.664Z,3.30
2018-11-26T00:50:15.299Z,3.20
2018-11-26T00:54:22.066Z,3.20
2018-11-26T00:58:28.610Z,3.30
2018-11-26T01:02:37.187Z,3.30
2018-11-26T01:07:01.783Z,3.20
2018-11-26T01:11:10.943Z,3.20
2018-11-26T01:15:17.477Z,3.20
2018-11-26T01:19:27.430Z,3.20
2018-11-26T01:23:33.944Z,3.20
2018-11-26T01:27:41.159Z,3.30
2018-11-26T01:31:47.677Z,3.30
2018-11-26T01:35:54.582Z,3.20
2018-11-26T01:40:01.091Z,3.20
2018-11-26T01:44:08.949Z,3.20
2018-11-26T01:48:15.426Z,3.00
2018-11-26T01:52:21.991Z,3.00
2018-11-26T01:56:28.473Z,3.10
2018-11-26T02:00:42.077Z,3.10
2018-11-26T02:04:48.521Z,3.20
2018-11-26T02:09:13.257Z,3.10
2018-11-26T02:13:37.162Z,3.10
2018-11-26T02:17:47.330Z,2.90
2018-11-26T02:21:53.814Z,3.00
2018-11-26T02:26:01.713Z,2.90
2018-11-26T02:30:09.411Z,2.90
2018-11-26T02:34:36.211Z,2.90
2018-11-26T02:38:45.177Z,2.80
2018-11-26T02:42:52.169Z,2.70
2018-11-26T02:46:58.653Z,2.70
2018-11-26T02:51:06.316Z,2.70
2018-11-26T02:55:12.773Z,2.70
2018-11-26T02:59:19.511Z,2.50
2018-11-26T03:03:25.970Z,2.70
2018-11-26T03:07:33.937Z,2.50
2018-11-26T03:11:40.423Z,2.50
2018-11-26T03:15:48.193Z,2.60
2018-11-26T03:19:56.954Z,2.70
2018-11-26T03:24:05.273Z,2.70
2018-11-26T03:28:11.724Z,2.80
2018-11-26T03:32:18.453Z,2.70
2018-11-26T03:36:42.431Z,2.80
2018-11-26T03:40:59.495Z,2.70
2018-11-26T03:45:07.616Z,2.70
2018-11-26T03:49:14.280Z,2.70
2018-11-26T03:53:20.724Z,2.70
2018-11-26T03:57:29.085Z,2.80
2018-11-26T04:01:36.455Z,2.50
2018-11-26T04:05:43.360Z,2.60
2018-11-26T04:09:51.742Z,2.60
2018-11-26T04:13:59.442Z,2.50
2018-11-26T04:18:23.548Z,2.50
2018-11-26T04:22:31.073Z,2.50
2018-11-26T04:26:37.554Z,2.30
2018-11-26T04:30:51.334Z,2.40
2018-11-26T04:35:15.763Z,2.40
2018-11-26T04:39:22.438Z,2.40
2018-11-26T04:43:28.943Z,2.40
2018-11-26T04:47:36.184Z,2.30
2018-11-26T04:52:00.303Z,2.20
2018-11-26T04:56:10.250Z,2.20
2018-11-26T05:00:16.960Z,2.20
2018-11-26T05:04:24.411Z,2.00
2018-11-26T05:08:31.695Z,1.80
2018-11-26T05:12:43.524Z,1.70
2018-11-26T05:16:49.993Z,1.60
2018-11-26T05:20:56.852Z,1.60
2018-11-26T05:25:07.346Z,1.40
2018-11-26T05:29:14.735Z,1.40
2018-11-26T05:33:23.443Z,1.40
2018-11-26T05:37:31.707Z,1.40
2018-11-26T05:41:38.226Z,1.40
2018-11-26T05:45:44.898Z,1.30
2018-11-26T05:49:51.411Z,1.30
2018-11-26T05:54:17.609Z,1.20
2018-11-26T05:58:24.037Z,1.20
2018-11-26T06:02:30.762Z,1.10
2018-11-26T06:06:37.783Z,1.10
2018-11-26T06:10:45.025Z,1.10
2018-11-26T06:14:51.572Z,1.10
2018-11-26T06:19:01.032Z,1.00
2018-11-26T06:23:07.784Z,1.00
2018-11-26T06:27:32.851Z,1.00
2018-11-26T06:31:57.851Z,1.00
2018-11-26T06:36:04.579Z,0.90
2018-11-26T06:40:12.096Z,0.80
2018-11-26T06:44:20.620Z,0.70
2018-11-26T06:48:27.281Z,0.80
2018-11-26T06:52:34.950Z,0.80
2018-11-26T06:56:58.869Z,0.90
2018-11-26T07:01:05.562Z,1.00
2018-11-26T07:05:23.463Z,1.20
2018-11-26T07:09:30.654Z,1.30
2018-11-26T07:13:37.149Z,1.40
2018-11-26T07:17:44.484Z,1.30
2018-11-26T07:21:54.048Z,1.30
2018-11-26T07:26:21.569Z,1.30
2018-11-26T07:30:29.709Z,1.20
2018-11-26T07:34:36.776Z,1.00
2018-11-26T07:38:43.368Z,1.00
2018-11-26T07:43:14.976Z,1.00
2018-11-26T07:47:21.529Z,1.00
2018-11-26T07:51:30.869Z,0.90
2018-11-26T07:55:37.471Z,0.90
2018-11-26T07:59:44.118Z,1.00
2018-11-26T08:03:53.600Z,0.90
2018-11-26T08:08:01.346Z,1.10
2018-11-26T08:12:10.770Z,1.20
2018-11-26T08:16:17.393Z,1.30
2018-11-26T08:20:24.970Z,1.20
2018-11-26T08:24:32.880Z,1.30
2018-11-26T08:28:39.356Z,1.30
2018-11-26T08:32:47.056Z,1.30
2018-11-26T08:37:27.189Z,1.30
2018-11-26T08:41:54.262Z,1.50
2018-11-26T08:46:48.391Z,1.40
2018-11-26T08:50:55.585Z,1.20
2018-11-26T08:55:02.241Z,1.20
2018-11-26T08:59:32.064Z,1.20
2018-11-26T09:03:56.915Z,1.30
2018-11-26T09:08:03.526Z,1.40
2018-11-26T09:12:13.017Z,1.50
2018-11-26T09:16:20.295Z,1.50
2018-11-26T09:20:26.752Z,1.40
2018-11-26T09:24:33.366Z,1.60
2018-11-26T09:28:58.134Z,1.70
2018-11-26T09:33:07.386Z,1.50
2018-11-26T09:37:13.904Z,1.50
2018-11-26T09:41:20.633Z,1.20
2018-11-26T09:45:27.170Z,1.00
2018-11-26T09:49:52.785Z,1.10
2018-11-26T09:53:59.240Z,1.20
2018-11-26T09:58:06.406Z,1.30
2018-11-26T10:02:13.654Z,1.30
2018-11-26T10:06:21.266Z,1.30
2018-11-26T10:10:27.766Z,1.10
2018-11-26T10:14:35.580Z,1.40
2018-11-26T10:18:42.165Z,1.30
2018-11-26T10:22:50.111Z,1.50
2018-11-26T10:26:56.644Z,1.60
2018-11-26T10:31:03.353Z,1.90
2018-11-26T10:35:19.109Z,1.90
2018-11-26T10:39:27.993Z,2.00
2018-11-26T10:43:34.523Z,1.90
2018-11-26T10:47:41.205Z,1.60
2018-11-26T10:51:48.649Z,1.60
2018-11-26T10:55:55.663Z,1.60
2018-11-26T11:00:02.187Z,1.60
2018-11-26T11:04:30.590Z,1.90
2018-11-26T11:08:37.168Z,2.10
2018-11-26T11:12:45.297Z,2.20
2018-11-26T11:16:51.787Z,2.10
2018-11-26T11:20:58.509Z,2.20
2018-11-26T11:25:05.197Z,2.30
2018-11-26T11:29:12.919Z,2.40
2018-11-26T11:37:26.962Z,2.30
2018-11-26T11:41:34.833Z,2.10
2018-11-26T11:45:42.572Z,2.00
2018-11-26T11:50:12.172Z,2.20
2018-11-26T11:54:21.067Z,1.90
2018-11-26T11:58:27.523Z,1.80
2018-11-26T12:02:40.878Z,1.70
2018-11-26T12:07:04.926Z,2.00
2018-11-26T12:11:13.112Z,2.20
2018-11-26T12:15:19.607Z,2.30
2018-11-26T12:19:45.499Z,2.10
2018-11-26T12:23:51.951Z,1.90
2018-11-26T12:27:58.748Z,2.10
2018-11-26T12:32:05.203Z,2.10
2018-11-26T12:36:12.084Z,2.10
2018-11-26T12:40:19.783Z,2.10
2018-11-26T12:44:34.495Z,2.00
2018-11-26T12:48:42.806Z,2.00
2018-11-26T12:52:50.436Z,2.10
2018-11-26T12:57:14.601Z,2.00
2018-11-26T13:01:21.520Z,2.10
2018-11-26T13:05:28.170Z,2.00
2018-11-26T13:09:38.473Z,1.80
2018-11-26T13:13:44.953Z,1.80
2018-11-26T13:17:52.638Z,2.00
2018-11-26T13:21:59.471Z,2.20
2018-11-26T13:26:24.725Z,2.20
2018-11-26T13:30:50.961Z,2.00
2018-11-26T13:34:57.819Z,1.80
2018-11-26T13:39:22.029Z,1.90
2018-11-26T13:43:31.548Z,1.90
2018-11-26T13:47:56.963Z,2.00
2018-11-26T13:52:04.991Z,2.00
2018-11-26T13:56:11.507Z,2.20
2018-11-26T14:00:53.296Z,2.20
2018-11-26T14:05:17.857Z,2.10
2018-11-26T14:09:25.534Z,2.00
2018-11-26T14:13:37.654Z,1.80
2018-11-26T14:17:49.861Z,1.80
2018-11-26T14:21:57.320Z,1.90
2018-11-26T14:26:04.694Z,1.90
2018-11-26T14:30:21.619Z,1.90
2018-11-26T14:34:29.134Z,1.80
2018-11-26T14:38:35.637Z,1.80
2018-11-26T14:42:47.616Z,1.80
2018-11-26T14:47:11.624Z,1.80
2018-11-26T14:51:22.517Z,1.70
2018-11-26T14:55:30.197Z,2.20
2018-11-26T14:59:37.895Z,1.60
2018-11-26T15:03:44.443Z,1.70
2018-11-26T15:07:52.016Z,-0.70
2018-11-26T15:12:01.115Z,1.80
2018-11-26T15:16:08.237Z,1.80
2018-11-26T15:20:31.134Z,1.90
2018-11-26T15:24:57.350Z,1.90
2018-11-26T15:29:03.983Z,2.00
2018-11-26T15:33:10.800Z,1.80
2018-11-26T15:37:17.333Z,1.70
2018-11-26T15:41:41.942Z,1.60
2018-11-26T15:45:48.525Z,1.60
2018-11-26T15:49:55.315Z,1.60
2018-11-26T15:54:18.870Z,1.60
2018-11-26T15:58:26.882Z,1.60
2018-11-26T16:02:33.319Z,1.40
2018-11-26T16:06:41.090Z,1.50
2018-11-26T16:10:47.727Z,1.40
2018-11-26T16:14:55.692Z,1.40
2018-11-26T16:19:04.159Z,1.40
2018-11-26T16:23:16.848Z,1.40
2018-11-26T16:27:23.321Z,1.40
2018-11-26T16:31:34.093Z,1.30
2018-11-26T16:35:44.527Z,1.30
2018-11-26T16:39:51.383Z,1.30
2018-11-26T16:43:58.824Z,1.20
2018-11-26T16:48:05.585Z,1.20
2018-11-26T16:52:12.194Z,1.20
2018-11-26T16:56:18.906Z,1.20
2018-11-26T17:00:32.110Z,1.20
2018-11-26T17:04:45.716Z,0.90
2018-11-26T17:08:52.225Z,0.90
2018-11-26T17:13:17.057Z,0.80
2018-11-26T17:17:24.542Z,1.00
2018-11-26T17:21:33.318Z,0.90
2018-11-26T17:25:42.665Z,0.80
2018-11-26T17:29:47.475Z,0.90
2018-11-26T17:33:54.045Z,1.10
2018-11-26T17:38:02.008Z,1.10
2018-11-26T17:42:25.867Z,1.10
2018-11-26T17:46:32.729Z,0.90
2018-11-26T17:50:45.387Z,0.80
2018-11-26T17:54:53.204Z,0.70
2018-11-26T17:58:59.658Z,0.70
2018-11-26T18:03:06.869Z,0.70
2018-11-26T18:07:14.696Z,0.70
2018-11-26T18:11:21.911Z,0.70
2018-11-26T18:15:28.448Z,0.80
2018-11-26T18:19:52.201Z,0.80
2018-11-26T18:23:58.730Z,1.00
2018-11-26T18:28:09.038Z,0.90
2018-11-26T18:32:15.642Z,0.80
2018-11-26T18:36:22.316Z,0.60
2018-11-26T18:40:30.043Z,0.50
2018-11-26T18:44:38.671Z,0.60
2018-11-26T18:48:47.712Z,0.90
2018-11-26T18:52:53.259Z,0.60
2018-11-26T18:56:59.739Z,0.50
2018-11-26T19:01:08.072Z,0.50
2018-11-26T19:05:16.378Z,0.50
2018-11-26T19:09:23.400Z,0.60
2018-11-26T19:13:32.208Z,0.70
2018-11-26T19:17:39.314Z,0.80
2018-11-26T19:21:45.813Z,0.80
2018-11-26T19:25:54.368Z,0.70
2018-11-26T19:30:00.901Z,0.70
2018-11-26T19:34:14.588Z,0.70
2018-11-26T19:38:21.138Z,0.60
2018-11-26T19:42:28.215Z,0.70
2018-11-26T19:46:34.940Z,0.70
2018-11-26T19:50:44.478Z,0.70
2018-11-26T19:54:51.725Z,0.60
2018-11-26T19:58:58.768Z,0.60
2018-11-26T20:03:25.632Z,0.50
2018-11-26T20:07:32.627Z,0.40
2018-11-26T20:11:39.213Z,0.30
2018-11-26T20:15:45.950Z,0.10
2018-11-26T20:20:09.692Z,0.40
2018-11-26T20:24:35.158Z,0.30
2018-11-26T20:28:59.250Z,0.30
2018-11-26T20:33:23.706Z,0.30
2018-11-26T20:37:31.268Z,0.20
2018-11-26T20:41:37.975Z,0.40
2018-11-26T20:46:05.844Z,0.40
2018-11-26T20:50:17.155Z,0.20
2018-11-26T20:54:23.684Z,0.30
2018-11-26T20:58:32.188Z,0.40
2018-11-26T21:02:38.725Z,0.50
2018-11-26T21:06:45.499Z,0.40
2018-11-26T21:11:09.380Z,0.60
2018-11-26T21:15:22.594Z,0.40
2018-11-26T21:19:29.056Z,0.20
2018-11-26T21:23:53.225Z,0.30
2018-11-26T21:28:00.587Z,0.30
2018-11-26T21:32:15.075Z,0.10
2018-11-26T21:36:21.640Z,-0.10
2018-11-26T21:40:28.412Z,0.00
2018-11-26T21:44:37.293Z,-0.10
2018-11-26T21:49:02.181Z,-0.10
2018-11-26T21:53:13.594Z,-0.10
2018-11-26T21:57:40.939Z,-0.10
2018-11-26T22:01:49.944Z,-0.10
2018-11-26T22:05:59.916Z,-0.10
2018-11-26T22:10:07.125Z,0.00
2018-11-26T22:14:31.422Z,-0.40
2018-11-26T22:18:37.876Z,-0.30
2018-11-26T22:22:46.795Z,-0.40
2018-11-26T22:26:53.598Z,-0.50
2018-11-26T22:31:02.810Z,-0.50
2018-11-26T22:35:08.384Z,-0.50
2018-11-26T22:39:15.736Z,-0.50
2018-11-26T22:43:23.016Z,-0.50
2018-11-26T22:47:52.187Z,-0.50
2018-11-26T22:52:02.430Z,-0.60
2018-11-26T22:56:10.057Z,-0.70
2018-11-26T23:00:30.544Z,-0.60
2018-11-26T23:04:38.004Z,-0.80
2018-11-26T23:08:47.243Z,-0.80
2018-11-26T23:12:53.944Z,-0.70
2018-11-26T23:17:00.389Z,-0.90
2018-11-26T23:21:10.323Z,1.40
2018-11-26T23:25:20.939Z,-0.90
2018-11-26T23:29:28.306Z,-0.90
2018-11-26T23:33:52.042Z,-1.00
2018-11-26T23:37:59.637Z,-1.00
2018-11-26T23:42:08.921Z,-1.00
2018-11-26T23:46:16.641Z,-1.30
2018-11-26T23:50:23.139Z,-1.20
2018-11-26T23:54:29.922Z,-1.20
2018-11-26T23:58:36.392Z,-1.30
